Gwynn, Virginia
Current Conditions -  °F | °C
As of 10:55 AM on Thursday 30 Oct 2014 (Local Time) from KW75 Reporting Station
Clear Clear  
Wind Chill: 57°   Ceiling: Unl
Heat Index: 57°   Visibility: 10mi
Dew Point: 44°   Wind: 8mph
Humidity: 61%   Direction: 340°NNW
Pressure: 30.06"   Gusts: NA
Location:  37.5°N, 76.29°W
Report Text: KW75 301455Z AUTO 34007KT 10SM CLR 14/07 A3006 RMK AO1 T01410067
Loading
Personal Weather Stations






























Interactive Weather Map
Tropical Storm Tracking
New forecast layout! Learn more

10-Day Weather Forecast

Advertisements
Track Severe Weather on mobile